sensor_id;sensor_type;location;lat;lon;timestamp;P1;durP1;ratioP1;P2;durP2;ratioP2
2858;SDS011;1437;53.250;10.406;2023-05-15T00:02:13;4.50;;;3.73;;
2858;SDS011;1437;53.250;10.406;2023-05-15T00:04:42;5.73;;;4.47;;
2858;SDS011;1437;53.250;10.406;2023-05-15T00:07:10;6.33;;;4.37;;
2858;SDS011;1437;53.250;10.406;2023-05-15T00:09:39;6.40;;;4.40;;
2858;SDS011;1437;53.250;10.406;2023-05-15T00:12:07;6.23;;;3.77;;
2858;SDS011;1437;53.250;10.406;2023-05-15T00:14:38;4.57;;;3.77;;
2858;SDS011;1437;53.250;10.406;2023-05-15T00:17:11;6.23;;;3.20;;
2858;SDS011;1437;53.250;10.406;2023-05-15T00:19:41;8.03;;;4.03;;
2858;SDS011;1437;53.250;10.406;2023-05-15T00:22:09;9.47;;;5.43;;
2858;SDS011;1437;53.250;10.406;2023-05-15T00:24:39;8.30;;;5.67;;
2858;SDS011;1437;53.250;10.406;2023-05-15T00:27:11;7.43;;;4.13;;
2858;SDS011;1437;53.250;10.406;2023-05-15T00:29:41;9.77;;;4.80;;
2858;SDS011;1437;53.250;10.406;2023-05-15T00:32:12;6.00;;;4.53;;
2858;SDS011;1437;53.250;10.406;2023-05-15T00:34:41;15.40;;;5.27;;
2858;SDS011;1437;53.250;10.406;2023-05-15T00:37:09;8.67;;;5.00;;
2858;SDS011;1437;53.250;10.406;2023-05-15T00:39:38;9.83;;;4.43;;
2858;SDS011;1437;53.250;10.406;2023-05-15T00:42:08;6.90;;;4.67;;
2858;SDS011;1437;53.250;10.406;2023-05-15T00:44:37;9.30;;;4.47;;
2858;SDS011;1437;53.250;10.406;2023-05-15T00:47:18;7.30;;;4.63;;
2858;SDS011;1437;53.250;10.406;2023-05-15T00:49:48;10.53;;;5.40;;
2858;SDS011;1437;53.250;10.406;2023-05-15T00:52:18;5.83;;;4.77;;
2858;SDS011;1437;53.250;10.406;2023-05-15T00:54:47;7.37;;;5.00;;
2858;SDS011;1437;53.250;10.406;2023-05-15T00:57:16;7.47;;;5.47;;
2858;SDS011;1437;53.250;10.406;2023-05-15T00:59:46;8.23;;;4.50;;
2858;SDS011;1437;53.250;10.406;2023-05-15T01:02:14;10.90;;;4.70;;
2858;SDS011;1437;53.250;10.406;2023-05-15T01:04:44;6.10;;;4.83;;
2858;SDS011;1437;53.250;10.406;2023-05-15T01:09:57;8.00;;;4.70;;
2858;SDS011;1437;53.250;10.406;2023-05-15T01:12:34;6.17;;;5.00;;
2858;SDS011;1437;53.250;10.406;2023-05-15T01:15:06;8.77;;;4.67;;
2858;SDS011;1437;53.250;10.406;2023-05-15T01:17:35;6.67;;;5.57;;
2858;SDS011;1437;53.250;10.406;2023-05-15T01:20:06;8.60;;;4.20;;
2858;SDS011;1437;53.250;10.406;2023-05-15T01:22:43;13.13;;;8.00;;
2858;SDS011;1437;53.250;10.406;2023-05-15T01:25:24;6.00;;;4.83;;
2858;SDS011;1437;53.250;10.406;2023-05-15T01:27:59;8.83;;;5.23;;
2858;SDS011;1437;53.250;10.406;2023-05-15T01:30:29;6.87;;;4.30;;
2858;SDS011;1437;53.250;10.406;2023-05-15T01:33:00;6.23;;;5.30;;
2858;SDS011;1437;53.250;10.406;2023-05-15T01:35:31;7.57;;;5.37;;
2858;SDS011;1437;53.250;10.406;2023-05-15T01:38:02;8.93;;;5.40;;
2858;SDS011;1437;53.250;10.406;2023-05-15T01:40:31;8.83;;;4.90;;
2858;SDS011;1437;53.250;10.406;2023-05-15T01:43:02;8.10;;;5.40;;
2858;SDS011;1437;53.250;10.406;2023-05-15T01:45:33;7.30;;;5.60;;
2858;SDS011;1437;53.250;10.406;2023-05-15T01:48:04;6.70;;;4.87;;
2858;SDS011;1437;53.250;10.406;2023-05-15T01:50:39;7.03;;;5.30;;
2858;SDS011;1437;53.250;10.406;2023-05-15T01:53:08;6.77;;;4.63;;
2858;SDS011;1437;53.250;10.406;2023-05-15T01:55:37;7.17;;;4.80;;
2858;SDS011;1437;53.250;10.406;2023-05-15T01:58:07;9.03;;;5.43;;
2858;SDS011;1437;53.250;10.406;2023-05-15T02:00:36;8.30;;;5.30;;
2858;SDS011;1437;53.250;10.406;2023-05-15T02:03:11;8.00;;;5.13;;
2858;SDS011;1437;53.250;10.406;2023-05-15T02:05:39;7.73;;;5.70;;
2858;SDS011;1437;53.250;10.406;2023-05-15T02:08:08;10.40;;;5.27;;
2858;SDS011;1437;53.250;10.406;2023-05-15T02:10:39;4.90;;;4.30;;
2858;SDS011;1437;53.250;10.406;2023-05-15T02:13:11;8.13;;;6.57;;
2858;SDS011;1437;53.250;10.406;2023-05-15T02:15:41;8.67;;;5.97;;
2858;SDS011;1437;53.250;10.406;2023-05-15T02:18:10;7.13;;;5.50;;
2858;SDS011;1437;53.250;10.406;2023-05-15T02:20:39;8.07;;;6.30;;
2858;SDS011;1437;53.250;10.406;2023-05-15T02:23:08;10.10;;;7.20;;
2858;SDS011;1437;53.250;10.406;2023-05-15T02:25:39;8.60;;;6.07;;
2858;SDS011;1437;53.250;10.406;2023-05-15T02:28:13;7.77;;;6.03;;
2858;SDS011;1437;53.250;10.406;2023-05-15T02:30:45;9.87;;;6.40;;
2858;SDS011;1437;53.250;10.406;2023-05-15T02:33:20;9.33;;;7.40;;
2858;SDS011;1437;53.250;10.406;2023-05-15T02:35:58;10.40;;;6.20;;
2858;SDS011;1437;53.250;10.406;2023-05-15T02:38:27;6.90;;;6.00;;
2858;SDS011;1437;53.250;10.406;2023-05-15T02:40:56;9.37;;;6.00;;
2858;SDS011;1437;53.250;10.406;2023-05-15T02:43:26;13.60;;;5.97;;
2858;SDS011;1437;53.250;10.406;2023-05-15T02:45:55;6.37;;;5.77;;
2858;SDS011;1437;53.250;10.406;2023-05-15T02:48:24;9.03;;;6.23;;
2858;SDS011;1437;53.250;10.406;2023-05-15T02:50:53;7.60;;;6.10;;
2858;SDS011;1437;53.250;10.406;2023-05-15T02:53:21;10.00;;;5.87;;
2858;SDS011;1437;53.250;10.406;2023-05-15T02:55:55;8.33;;;6.47;;
2858;SDS011;1437;53.250;10.406;2023-05-15T02:58:23;8.60;;;6.67;;
2858;SDS011;1437;53.250;10.406;2023-05-15T03:00:53;12.40;;;6.23;;
2858;SDS011;1437;53.250;10.406;2023-05-15T03:03:22;9.93;;;6.50;;
2858;SDS011;1437;53.250;10.406;2023-05-15T03:05:50;9.20;;;6.10;;
2858;SDS011;1437;53.250;10.406;2023-05-15T03:08:19;9.30;;;6.53;;
2858;SDS011;1437;53.250;10.406;2023-05-15T03:10:47;10.70;;;6.67;;
2858;SDS011;1437;53.250;10.406;2023-05-15T03:13:16;8.20;;;6.27;;
2858;SDS011;1437;53.250;10.406;2023-05-15T03:15:44;9.53;;;6.97;;
2858;SDS011;1437;53.250;10.406;2023-05-15T03:18:17;9.27;;;7.00;;
2858;SDS011;1437;53.250;10.406;2023-05-15T03:20:46;10.20;;;6.63;;
2858;SDS011;1437;53.250;10.406;2023-05-15T03:23:14;9.97;;;7.83;;
2858;SDS011;1437;53.250;10.406;2023-05-15T03:25:43;9.20;;;7.27;;
2858;SDS011;1437;53.250;10.406;2023-05-15T03:28:11;7.27;;;6.57;;
2858;SDS011;1437;53.250;10.406;2023-05-15T03:30:42;13.13;;;8.60;;
2858;SDS011;1437;53.250;10.406;2023-05-15T03:33:11;10.33;;;7.47;;
2858;SDS011;1437;53.250;10.406;2023-05-15T03:35:42;9.60;;;7.00;;
2858;SDS011;1437;53.250;10.406;2023-05-15T03:38:10;11.73;;;7.63;;
2858;SDS011;1437;53.250;10.406;2023-05-15T03:40:38;8.60;;;6.80;;
2858;SDS011;1437;53.250;10.406;2023-05-15T03:43:06;10.20;;;7.73;;
2858;SDS011;1437;53.250;10.406;2023-05-15T03:45:35;8.83;;;7.57;;
2858;SDS011;1437;53.250;10.406;2023-05-15T03:48:04;9.60;;;7.27;;
2858;SDS011;1437;53.250;10.406;2023-05-15T03:50:35;8.50;;;6.77;;
2858;SDS011;1437;53.250;10.406;2023-05-15T03:53:05;9.20;;;7.83;;
2858;SDS011;1437;53.250;10.406;2023-05-15T03:55:36;9.93;;;7.73;;
2858;SDS011;1437;53.250;10.406;2023-05-15T03:58:04;11.03;;;7.50;;
2858;SDS011;1437;53.250;10.406;2023-05-15T04:00:32;9.10;;;7.73;;
2858;SDS011;1437;53.250;10.406;2023-05-15T04:03:03;10.63;;;7.67;;
2858;SDS011;1437;53.250;10.406;2023-05-15T04:05:31;12.13;;;7.83;;
2858;SDS011;1437;53.250;10.406;2023-05-15T04:08:00;15.10;;;8.10;;
2858;SDS011;1437;53.250;10.406;2023-05-15T04:10:36;9.83;;;8.00;;
2858;SDS011;1437;53.250;10.406;2023-05-15T04:13:09;9.27;;;7.40;;
2858;SDS011;1437;53.250;10.406;2023-05-15T04:15:37;13.23;;;7.70;;
2858;SDS011;1437;53.250;10.406;2023-05-15T04:18:05;10.00;;;8.10;;
2858;SDS011;1437;53.250;10.406;2023-05-15T04:20:34;10.83;;;7.40;;
2858;SDS011;1437;53.250;10.406;2023-05-15T04:23:16;12.67;;;8.90;;
2858;SDS011;1437;53.250;10.406;2023-05-15T04:25:48;15.23;;;12.10;;
2858;SDS011;1437;53.250;10.406;2023-05-15T04:28:18;13.10;;;10.00;;
2858;SDS011;1437;53.250;10.406;2023-05-15T04:30:47;13.30;;;9.83;;
2858;SDS011;1437;53.250;10.406;2023-05-15T04:33:16;10.40;;;7.93;;
2858;SDS011;1437;53.250;10.406;2023-05-15T04:35:44;10.07;;;7.37;;
2858;SDS011;1437;53.250;10.406;2023-05-15T04:38:13;11.47;;;8.17;;
2858;SDS011;1437;53.250;10.406;2023-05-15T04:40:41;11.07;;;7.20;;
2858;SDS011;1437;53.250;10.406;2023-05-15T04:43:11;8.57;;;7.10;;
2858;SDS011;1437;53.250;10.406;2023-05-15T04:45:39;8.70;;;7.20;;
2858;SDS011;1437;53.250;10.406;2023-05-15T04:48:12;11.57;;;7.60;;
2858;SDS011;1437;53.250;10.406;2023-05-15T04:50:44;10.10;;;7.67;;
2858;SDS011;1437;53.250;10.406;2023-05-15T04:53:13;10.70;;;7.97;;
2858;SDS011;1437;53.250;10.406;2023-05-15T04:55:42;8.30;;;7.20;;
2858;SDS011;1437;53.250;10.406;2023-05-15T04:58:13;7.17;;;6.33;;
2858;SDS011;1437;53.250;10.406;2023-05-15T05:00:41;15.27;;;8.80;;
2858;SDS011;1437;53.250;10.406;2023-05-15T05:03:09;10.37;;;6.73;;
2858;SDS011;1437;53.250;10.406;2023-05-15T05:05:38;10.77;;;6.60;;
2858;SDS011;1437;53.250;10.406;2023-05-15T05:08:07;10.43;;;8.33;;
2858;SDS011;1437;53.250;10.406;2023-05-15T05:10:38;13.03;;;9.30;;
2858;SDS011;1437;53.250;10.406;2023-05-15T05:13:08;10.07;;;7.07;;
2858;SDS011;1437;53.250;10.406;2023-05-15T05:15:40;8.03;;;7.23;;
2858;SDS011;1437;53.250;10.406;2023-05-15T05:18:09;7.93;;;6.97;;
2858;SDS011;1437;53.250;10.406;2023-05-15T05:26:44;9.47;;;6.80;;
2858;SDS011;1437;53.250;10.406;2023-05-15T05:29:12;8.90;;;6.40;;
2858;SDS011;1437;53.250;10.406;2023-05-15T05:31:40;12.30;;;6.63;;
2858;SDS011;1437;53.250;10.406;2023-05-15T05:34:08;8.83;;;7.07;;
2858;SDS011;1437;53.250;10.406;2023-05-15T05:36:35;8.87;;;6.33;;
2858;SDS011;1437;53.250;10.406;2023-05-15T05:39:04;8.80;;;5.83;;
2858;SDS011;1437;53.250;10.406;2023-05-15T05:41:32;14.80;;;7.97;;
2858;SDS011;1437;53.250;10.406;2023-05-15T05:43:59;8.20;;;7.30;;
2858;SDS011;1437;53.250;10.406;2023-05-15T05:46:28;7.93;;;7.23;;
2858;SDS011;1437;53.250;10.406;2023-05-15T05:48:57;8.53;;;6.20;;
2858;SDS011;1437;53.250;10.406;2023-05-15T05:51:24;6.63;;;5.90;;
2858;SDS011;1437;53.250;10.406;2023-05-15T05:53:51;11.13;;;6.67;;
2858;SDS011;1437;53.250;10.406;2023-05-15T05:56:19;9.60;;;6.60;;
2858;SDS011;1437;53.250;10.406;2023-05-15T05:58:47;9.20;;;6.30;;
2858;SDS011;1437;53.250;10.406;2023-05-15T06:01:18;8.73;;;6.97;;
